Time;durP1;ratioP1;P1;durP2;ratioP2;P2;SDS_P1;SDS_P2;PMS_P1;PMS_P2;Temp;Humidity;BMP_temperature;BMP_pressure;BME280_temperature;BME280_humidity;BME280_pressure;Samples;Min_cycle;Max_cycle;Signal;HPM_P1;HPM_P2
2022/12/01 00:01:45;;;;;;;17.47;11.27;;;9.60;92.80;;;;;;4989741;28;20212;-96
2022/12/01 00:04:34;;;;;;;18.43;11.50;;;9.50;92.90;;;;;;4995682;28;20267;-96
2022/12/01 00:07:02;;;;;;;18.77;11.53;;;9.50;92.60;;;;;;4989779;28;20222;-96
2022/12/01 00:12:18;;;;;;;20.30;12.17;;;9.40;92.60;;;;;;4987686;28;20232;-96
2022/12/01 00:15:02;;;;;;;19.30;12.27;;;9.30;92.50;;;;;;4972476;28;20242;-96
2022/12/01 00:17:33;;;;;;;18.47;11.97;;;9.30;92.60;;;;;;4986142;28;20217;-96
2022/12/01 00:20:01;;;;;;;21.73;12.27;;;9.30;92.70;;;;;;4971615;28;20211;-96
2022/12/01 00:22:37;;;;;;;21.90;12.60;;;9.20;92.80;;;;;;4967659;28;20298;-96
2022/12/01 00:28:04;;;;;;;28.37;14.20;;;9.20;93.10;;;;;;4986903;28;20231;-96
2022/12/01 00:30:32;;;;;;;24.00;12.50;;;9.10;92.80;;;;;;4985757;28;20240;-94
2022/12/01 00:33:06;;;;;;;20.27;12.07;;;9.10;92.80;;;;;;4979865;28;20218;-96
2022/12/01 00:35:34;;;;;;;16.87;11.30;;;9.10;92.70;;;;;;4986651;28;20199;-96
2022/12/01 00:38:05;;;;;;;20.47;13.17;;;9.10;92.60;;;;;;4974512;28;20757;-95
2022/12/01 00:40:33;;;;;;;24.23;13.40;;;9.00;92.50;;;;;;4985507;28;20660;-96
2022/12/01 00:43:06;;;;;;;23.80;12.73;;;9.00;92.50;;;;;;4977859;28;20214;-95
2022/12/01 00:45:33;;;;;;;25.53;13.07;;;8.90;92.30;;;;;;4978889;28;20202;-95
2022/12/01 00:48:07;;;;;;;16.13;11.33;;;8.90;92.30;;;;;;4979094;28;20270;-95
2022/12/01 00:50:35;;;;;;;21.60;13.10;;;8.90;92.10;;;;;;4973331;28;20235;-96
2022/12/01 00:53:08;;;;;;;23.00;13.00;;;8.80;92.30;;;;;;4961756;28;20223;-96
2022/12/01 00:55:54;;;;;;;21.20;12.37;;;8.70;92.30;;;;;;4971627;28;20840;-96
2022/12/01 00:58:25;;;;;;;24.67;13.57;;;8.70;92.30;;;;;;4978672;28;20211;-96
2022/12/01 01:01:02;;;;;;;25.93;14.10;;;8.70;92.50;;;;;;4989390;28;20275;-95
2022/12/01 01:03:37;;;;;;;22.47;13.63;;;8.70;92.60;;;;;;4982615;28;20210;-96
2022/12/01 01:06:07;;;;;;;20.50;13.23;;;8.60;92.40;;;;;;4968870;28;20209;-93
2022/12/01 01:08:45;;;;;;;22.37;12.83;;;8.60;92.60;;;;;;4974277;28;20216;-95
2022/12/01 01:11:19;;;;;;;21.03;12.53;;;8.50;92.40;;;;;;4986148;28;20237;-96
2022/12/01 01:14:14;;;;;;;19.50;12.17;;;8.50;92.50;;;;;;4982941;28;20213;-96
2022/12/01 01:16:53;;;;;;;21.00;12.43;;;8.50;92.60;;;;;;4981510;28;20218;-95
2022/12/01 01:19:23;;;;;;;20.77;11.53;;;8.40;92.50;;;;;;4982274;28;20209;-96
2022/12/01 01:22:03;;;;;;;24.27;13.37;;;8.40;92.40;;;;;;4975825;28;20201;-95
2022/12/01 01:24:37;;;;;;;21.93;11.83;;;8.40;92.50;;;;;;4985610;28;20284;-96
2022/12/01 01:27:11;;;;;;;24.13;12.77;;;8.30;92.40;;;;;;4969574;28;20217;-96
2022/12/01 01:29:42;;;;;;;22.50;12.57;;;8.30;92.30;;;;;;4966217;28;20227;-95
2022/12/01 01:32:19;;;;;;;17.70;10.80;;;8.30;92.30;;;;;;4968189;28;20214;-96
2022/12/01 01:34:51;;;;;;;23.80;11.57;;;8.30;92.50;;;;;;4975652;28;20212;-96
2022/12/01 01:37:21;;;;;;;32.50;14.60;;;8.20;92.50;;;;;;4975514;28;20299;-96
2022/12/01 01:39:48;;;;;;;25.47;13.30;;;8.20;92.50;;;;;;4976954;28;20213;-96
2022/12/01 01:42:22;;;;;;;27.53;13.13;;;8.20;92.50;;;;;;4976949;28;20241;-96
2022/12/01 01:44:55;;;;;;;19.27;12.50;;;8.20;92.40;;;;;;4977872;28;20206;-96
2022/12/01 01:47:28;;;;;;;22.30;12.90;;;8.10;92.30;;;;;;4977286;28;20211;-96
2022/12/01 01:50:04;;;;;;;21.07;11.97;;;8.10;92.40;;;;;;4977226;28;20314;-96
2022/12/01 01:52:33;;;;;;;25.37;14.50;;;8.00;92.40;;;;;;4977694;28;20205;-94
2022/12/01 01:55:02;;;;;;;22.83;13.50;;;8.00;92.50;;;;;;4967464;28;20213;-96
2022/12/01 01:57:34;;;;;;;24.30;13.50;;;8.00;92.50;;;;;;4975660;28;20245;-96
2022/12/01 02:00:14;;;;;;;24.73;13.73;;;8.00;92.50;;;;;;4976291;28;20223;-95
2022/12/01 02:02:44;;;;;;;26.77;14.47;;;7.90;92.50;;;;;;4974930;28;20684;-95
2022/12/01 02:05:23;;;;;;;26.13;13.93;;;7.90;92.60;;;;;;4975606;28;20291;-96
2022/12/01 02:07:54;;;;;;;34.70;15.33;;;7.90;92.60;;;;;;4985430;28;20274;-96
2022/12/01 02:10:33;;;;;;;30.20;14.77;;;7.90;92.60;;;;;;4989542;28;20249;-96
2022/12/01 02:13:14;;;;;;;37.37;17.27;;;7.80;92.60;;;;;;4994019;28;20204;-96
2022/12/01 02:15:54;;;;;;;32.63;14.20;;;7.80;92.70;;;;;;4981739;28;20206;-96
2022/12/01 02:18:28;;;;;;;30.83;15.43;;;7.80;92.70;;;;;;4967812;28;20256;-95
2022/12/01 02:21:36;;;;;;;25.63;13.40;;;7.80;92.80;;;;;;4970325;28;20231;-96
2022/12/01 02:24:48;;;;;;;23.27;12.63;;;7.70;92.80;;;;;;4948851;29;20196;-96
2022/12/01 02:27:35;;;;;;;21.67;14.20;;;7.70;92.80;;;;;;4967944;28;20271;-96
2022/12/01 02:30:27;;;;;;;30.60;15.43;;;7.70;92.80;;;;;;4967237;28;20237;-96
2022/12/01 02:33:07;;;;;;;29.87;15.37;;;7.70;92.90;;;;;;4989751;28;20208;-96
2022/12/01 02:35:59;;;;;;;23.93;14.37;;;7.60;92.90;;;;;;4985592;28;20312;-95
2022/12/01 02:38:32;;;;;;;28.57;15.30;;;7.60;92.90;;;;;;4983975;28;20200;-96
2022/12/01 02:41:18;;;;;;;23.07;13.73;;;7.60;92.90;;;;;;4979700;28;20595;-96
2022/12/01 02:43:57;;;;;;;25.27;13.03;;;7.60;92.90;;;;;;4982044;28;20657;-96
2022/12/01 02:46:32;;;;;;;29.17;14.53;;;7.60;92.80;;;;;;4979291;28;20205;-96
2022/12/01 02:49:09;;;;;;;25.70;13.30;;;7.50;92.90;;;;;;4983608;28;20204;-96
2022/12/01 02:51:43;;;;;;;28.07;14.30;;;7.50;92.80;;;;;;4978442;28;20254;-96
2022/12/01 02:54:17;;;;;;;27.27;14.13;;;7.50;92.70;;;;;;4979956;28;20214;-95
2022/12/01 02:56:48;;;;;;;28.87;14.13;;;7.50;92.70;;;;;;4984877;28;20677;-96
2022/12/01 02:59:23;;;;;;;26.23;14.30;;;7.50;92.60;;;;;;4973309;28;20205;-95
2022/12/01 03:02:02;;;;;;;25.00;13.43;;;7.50;92.60;;;;;;4984141;28;20667;-96
2022/12/01 03:05:00;;;;;;;30.37;14.13;;;7.40;92.60;;;;;;4982550;28;20204;-95
2022/12/01 03:07:49;;;;;;;25.50;13.17;;;7.40;92.70;;;;;;4982435;28;20216;-95
2022/12/01 03:10:24;;;;;;;28.17;14.80;;;7.40;92.70;;;;;;4969423;28;20253;-96
2022/12/01 03:13:02;;;;;;;30.90;14.37;;;7.40;92.80;;;;;;4971387;28;20236;-96
2022/12/01 03:15:37;;;;;;;27.13;13.60;;;7.40;92.70;;;;;;4966584;28;20205;-95
2022/12/01 03:18:17;;;;;;;22.13;12.80;;;7.40;92.60;;;;;;4981304;28;20218;-96
2022/12/01 03:20:59;;;;;;;36.27;15.00;;;7.40;92.60;;;;;;4985751;28;20408;-95
2022/12/01 03:23:32;;;;;;;24.87;12.13;;;7.30;92.50;;;;;;4986021;28;20208;-96
2022/12/01 03:26:05;;;;;;;21.23;12.47;;;7.30;92.50;;;;;;4974538;28;20282;-96
2022/12/01 03:28:37;;;;;;;26.13;13.57;;;7.30;92.40;;;;;;4973878;28;20231;-95
2022/12/01 03:31:16;;;;;;;23.97;13.77;;;7.30;92.40;;;;;;4969193;28;20231;-96
2022/12/01 03:33:55;;;;;;;27.80;13.47;;;7.20;92.30;;;;;;4968273;28;20215;-96
2022/12/01 03:36:35;;;;;;;26.03;12.17;;;7.30;92.20;;;;;;4971618;28;20363;-96
2022/12/01 03:39:08;;;;;;;20.40;11.67;;;7.20;92.10;;;;;;4971179;28;20207;-96
2022/12/01 03:42:06;;;;;;;21.47;12.73;;;7.20;92.10;;;;;;4975878;28;20208;-94
2022/12/01 03:44:49;;;;;;;24.60;12.80;;;7.10;91.90;;;;;;4969508;28;20232;-95
2022/12/01 03:47:25;;;;;;;22.97;12.47;;;7.10;91.90;;;;;;4967941;28;20225;-96
2022/12/01 03:50:00;;;;;;;20.73;12.37;;;7.10;92.00;;;;;;4975604;28;20298;-96
2022/12/01 03:52:51;;;;;;;25.00;13.27;;;7.00;91.90;;;;;;4976064;28;20208;-96
2022/12/01 03:55:29;;;;;;;21.50;12.67;;;7.00;92.00;;;;;;4957303;28;20216;-95
2022/12/01 03:58:09;;;;;;;28.37;13.83;;;6.90;92.00;;;;;;4974554;28;20768;-96
2022/12/01 04:00:48;;;;;;;23.30;13.13;;;6.90;92.00;;;;;;4960542;28;20216;-95
2022/12/01 04:03:20;;;;;;;26.93;13.33;;;6.90;92.10;;;;;;4956492;28;20203;-96
2022/12/01 04:05:50;;;;;;;29.77;14.77;;;6.90;92.30;;;;;;4975217;28;20210;-96
2022/12/01 04:08:36;;;;;;;27.83;13.80;;;6.90;92.60;;;;;;4973773;28;20205;-96
2022/12/01 04:12:28;;;;;;;26.40;13.77;;;6.80;92.60;;;;;;4973647;28;20672;-96
2022/12/01 04:13:50;;;;;;;22.33;13.00;;;6.80;92.70;;;;;;4973979;28;20208;-96
2022/12/01 04:16:20;;;;;;;28.77;14.57;;;6.80;92.90;;;;;;4974400;28;20210;-96
2022/12/01 04:18:49;;;;;;;26.40;14.60;;;6.80;93.20;;;;;;4974707;28;20209;-96
2022/12/01 04:21:16;;;;;;;23.00;14.00;;;6.80;93.40;;;;;;4972082;28;20265;-96
2022/12/01 04:24:00;;;;;;;26.57;15.57;;;6.80;93.70;;;;;;4996336;28;20258;-96
2022/12/01 04:26:28;;;;;;;31.03;15.70;;;6.80;93.80;;;;;;4985745;28;20286;-96
2022/12/01 04:28:58;;;;;;;27.77;14.57;;;6.80;93.80;;;;;;4975557;28;20224;-96
2022/12/01 04:31:27;;;;;;;27.13;13.37;;;6.90;93.80;;;;;;4975536;28;20288;-96
2022/12/01 04:33:55;;;;;;;29.70;16.07;;;6.90;93.80;;;;;;4975116;28;20208;-96
2022/12/01 04:36:29;;;;;;;24.50;13.73;;;6.90;93.80;;;;;;4973903;28;20250;-96
2022/12/01 04:39:01;;;;;;;25.67;14.27;;;6.90;93.80;;;;;;4974269;28;20210;-96
2022/12/01 04:41:29;;;;;;;28.17;15.57;;;6.90;93.70;;;;;;4976006;28;20219;-96
2022/12/01 04:44:04;;;;;;;26.83;15.50;;;6.90;93.60;;;;;;4974862;28;20218;-96
2022/12/01 04:57:53;;;;;;;34.53;16.60;;;7.00;93.70;;;;;;5164368;27;20568;-95
2022/12/01 05:00:22;;;;;;;24.23;14.77;;;7.10;94.00;;;;;;5131676;27;20201;-95
2022/12/01 05:02:51;;;;;;;23.47;14.80;;;7.20;93.70;;;;;;5126057;27;20290;-95
2022/12/01 05:05:21;;;;;;;26.03;14.47;;;7.20;93.20;;;;;;5110012;28;20547;-94
2022/12/01 05:07:58;;;;;;;22.70;15.17;;;7.20;92.90;;;;;;5090206;28;20210;-95
2022/12/01 05:10:29;;;;;;;28.93;15.50;;;7.20;92.70;;;;;;5093988;28;20217;-95
2022/12/01 05:13:02;;;;;;;27.37;15.73;;;7.20;92.60;;;;;;5111224;28;20208;-94
2022/12/01 05:15:33;;;;;;;26.23;14.23;;;7.20;92.40;;;;;;5117723;28;20941;-95
2022/12/01 05:18:39;;;;;;;26.63;14.93;;;7.20;92.30;;;;;;5110707;28;20215;-96
2022/12/01 05:25:24;;;;;;;27.67;14.37;;;7.10;92.10;;;;;;5100922;28;20234;-96
2022/12/01 05:27:52;;;;;;;27.67;14.73;;;7.00;92.10;;;;;;5009168;28;20213;-96
2022/12/01 05:30:21;;;;;;;27.73;14.50;;;7.00;92.00;;;;;;5006585;28;20208;-96
2022/12/01 05:32:50;;;;;;;28.97;15.10;;;7.00;91.80;;;;;;5098832;28;20187;-96
2022/12/01 05:35:30;;;;;;;32.53;16.40;;;6.90;91.70;;;;;;5121951;28;20179;-96
2022/12/01 05:38:01;;;;;;;26.80;15.17;;;6.90;91.50;;;;;;5117009;28;20198;-96
2022/12/01 05:40:30;;;;;;;27.10;15.43;;;6.80;91.60;;;;;;5114086;28;20195;-96
2022/12/01 05:43:03;;;;;;;25.17;14.27;;;6.70;91.60;;;;;;5111873;28;20198;-96
2022/12/01 05:45:33;;;;;;;26.33;14.57;;;6.70;91.70;;;;;;5112270;28;20210;-96
2022/12/01 05:48:02;;;;;;;25.47;14.63;;;6.70;91.80;;;;;;5112771;28;20260;-96
2022/12/01 05:50:37;;;;;;;28.20;14.60;;;6.70;91.90;;;;;;5111315;28;20220;-96
2022/12/01 05:53:06;;;;;;;25.83;14.10;;;6.70;91.90;;;;;;5111215;28;20201;-96
2022/12/01 05:55:36;;;;;;;28.90;14.70;;;6.60;92.00;;;;;;5124602;28;20200;-96
2022/12/01 05:58:08;;;;;;;28.60;14.90;;;6.60;92.00;;;;;;5114446;27;20214;-96
2022/12/01 06:00:37;;;;;;;28.13;14.40;;;6.60;92.00;;;;;;5116698;28;20209;-94
2022/12/01 06:03:25;;;;;;;28.33;14.43;;;6.50;92.00;;;;;;5119609;28;20199;-96
2022/12/01 06:06:48;;;;;;;23.77;14.30;;;6.50;92.00;;;;;;5102296;28;20238;-96
2022/12/01 06:09:45;;;;;;;24.33;14.83;;;6.50;92.00;;;;;;5113938;28;20202;-96
2022/12/01 06:12:22;;;;;;;26.20;14.07;;;6.50;91.90;;;;;;5097485;28;20635;-94
2022/12/01 06:18:48;;;;;;;24.07;13.33;;;6.40;91.70;;;;;;5077823;28;20294;-96
2022/12/01 06:32:14;;;;;;;21.40;13.07;;;6.20;92.00;;;;;;4879960;29;20324;-96
2022/12/01 06:42:40;;;;;;;28.23;14.77;;;6.10;92.00;;;;;;5009906;28;20208;-96
2022/12/01 06:45:53;;;;;;;24.40;12.57;;;6.10;92.00;;;;;;5015291;28;20200;-96
2022/12/01 06:58:59;;;;;;;30.63;14.40;;;6.00;92.20;;;;;;4838961;29;20668;-96
2022/12/01 07:06:04;;;;;;;;;;;;;;;;;;;;;
2022/12/01 07:08:33;;;;;;;22.60;12.73;;;5.90;92.20;;;;;;4967614;28;20213;-96
2022/12/01 07:11:31;;;;;;;21.40;13.03;;;5.90;92.10;;;;;;5041215;28;20272;-96
2022/12/01 07:14:37;;;;;;;26.60;14.50;;;5.80;92.10;;;;;;5039872;28;20651;-96
2022/12/01 07:17:15;;;;;;;28.17;14.80;;;5.80;92.00;;;;;;5037486;28;20240;-96
2022/12/01 07:19:49;;;;;;;27.10;15.03;;;5.80;91.90;;;;;;5074221;28;20246;-96
2022/12/01 07:22:30;;;;;;;28.43;14.63;;;5.70;92.00;;;;;;5076335;28;20211;-96
2022/12/01 07:24:59;;;;;;;26.63;15.27;;;5.70;92.10;;;;;;5073573;28;20996;-95
2022/12/01 07:27:33;;;;;;;31.87;14.63;;;5.70;92.10;;;;;;5095720;28;20211;-96
2022/12/01 07:30:01;;;;;;;23.10;14.07;;;5.70;92.10;;;;;;5101386;28;20297;-96
2022/12/01 07:32:45;;;;;;;25.77;13.67;;;5.70;92.10;;;;;;5089679;28;20231;-96
2022/12/01 07:35:15;;;;;;;25.07;14.90;;;5.70;92.20;;;;;;5075415;28;20203;-95
2022/12/01 07:37:57;;;;;;;31.83;13.97;;;5.60;92.10;;;;;;5094409;28;20234;-95
2022/12/01 07:40:25;;;;;;;26.57;14.23;;;5.70;92.30;;;;;;5096881;28;20222;-96
2022/12/01 07:42:57;;;;;;;33.33;15.73;;;5.60;92.40;;;;;;5096575;28;20235;-96
2022/12/01 07:45:25;;;;;;;33.10;15.73;;;5.60;92.40;;;;;;5095709;28;20228;-95
2022/12/01 07:47:57;;;;;;;32.40;15.10;;;5.60;92.40;;;;;;5096958;28;20294;-95
2022/12/01 07:50:28;;;;;;;34.93;18.00;;;5.60;92.40;;;;;;5096225;28;20263;-95
2022/12/01 07:52:59;;;;;;;38.63;19.47;;;5.60;92.40;;;;;;5076919;28;20282;-95
2022/12/01 07:55:28;;;;;;;34.23;18.90;;;5.60;92.50;;;;;;5074917;28;20203;-94
2022/12/01 07:58:00;;;;;;;37.20;18.23;;;5.60;92.50;;;;;;5069790;28;20233;-95
2022/12/01 08:00:32;;;;;;;33.23;17.43;;;5.60;92.50;;;;;;5073056;28;20299;-95
2022/12/01 08:03:05;;;;;;;31.67;18.30;;;5.60;92.60;;;;;;5078885;28;20238;-95
2022/12/01 08:05:35;;;;;;;38.10;20.07;;;5.60;92.70;;;;;;5099782;28;20213;-95
2022/12/01 08:08:04;;;;;;;31.57;17.67;;;5.60;92.60;;;;;;5123421;28;20213;-95
2022/12/01 08:10:34;;;;;;;30.27;17.10;;;5.60;92.70;;;;;;5110595;28;20203;-95
2022/12/01 08:13:03;;;;;;;32.43;17.10;;;5.60;92.90;;;;;;5096591;28;20643;-95
2022/12/01 08:15:43;;;;;;;33.60;17.27;;;5.70;93.00;;;;;;5097102;28;20248;-94
2022/12/01 08:18:17;;;;;;;32.27;15.47;;;5.60;93.00;;;;;;5098761;28;20223;-95
2022/12/01 08:21:01;;;;;;;31.90;16.67;;;5.70;93.10;;;;;;5096806;28;20204;-95
2022/12/01 08:23:31;;;;;;;26.30;15.47;;;5.70;93.10;;;;;;5097199;28;20223;-96
2022/12/01 08:26:04;;;;;;;32.57;16.50;;;5.70;93.20;;;;;;5095326;28;20200;-94
2022/12/01 08:28:39;;;;;;;33.43;16.80;;;5.70;93.20;;;;;;5093839;28;20281;-96
2022/12/01 08:31:11;;;;;;;40.67;17.73;;;5.80;93.20;;;;;;5093850;28;20305;-96
2022/12/01 08:33:41;;;;;;;31.53;18.03;;;5.80;93.30;;;;;;5091102;28;20204;-95
2022/12/01 08:36:14;;;;;;;34.10;16.70;;;5.80;93.20;;;;;;5095267;28;20191;-95
2022/12/01 08:38:44;;;;;;;32.00;16.60;;;5.80;93.30;;;;;;5095059;28;20288;-96
2022/12/01 08:41:13;;;;;;;37.60;17.07;;;5.80;93.30;;;;;;5084531;28;20212;-96
2022/12/01 08:43:43;;;;;;;43.37;21.23;;;5.80;93.40;;;;;;5093133;28;20194;-95
2022/12/01 08:46:14;;;;;;;35.43;18.37;;;5.90;93.60;;;;;;5080924;28;20195;-96
2022/12/01 08:48:53;;;;;;;43.90;18.80;;;5.90;93.70;;;;;;5079029;28;20215;-95
2022/12/01 08:51:23;;;;;;;36.20;18.40;;;6.00;94.00;;;;;;5076868;28;20230;-96
2022/12/01 08:53:51;;;;;;;33.13;18.07;;;6.00;94.20;;;;;;5087074;28;20195;-96
2022/12/01 08:56:21;;;;;;;44.83;21.90;;;6.10;94.30;;;;;;5083582;28;20200;-96
2022/12/01 08:58:49;;;;;;;42.43;19.40;;;6.10;94.40;;;;;;5095107;28;20339;-96
2022/12/01 09:01:19;;;;;;;44.13;19.80;;;6.10;94.40;;;;;;5094571;28;20213;-95
2022/12/01 09:04:03;;;;;;;40.23;20.03;;;6.10;94.40;;;;;;5092951;28;20207;-96
2022/12/01 09:06:35;;;;;;;44.60;21.43;;;6.20;94.50;;;;;;5091587;28;20198;-96
2022/12/01 09:09:03;;;;;;;46.83;22.50;;;6.30;94.80;;;;;;5089456;28;20200;-96
2022/12/01 09:11:31;;;;;;;43.93;21.53;;;6.30;94.90;;;;;;5089128;28;20210;-96
2022/12/01 09:14:01;;;;;;;35.87;19.63;;;6.30;95.10;;;;;;5089157;28;20210;-95
2022/12/01 09:16:28;;;;;;;41.27;21.07;;;6.40;95.60;;;;;;5069843;28;20214;-95
2022/12/01 09:18:57;;;;;;;40.70;19.33;;;6.40;95.20;;;;;;5067889;28;20235;-95
2022/12/01 09:21:26;;;;;;;37.13;19.03;;;6.50;95.40;;;;;;5084739;28;20214;-96
2022/12/01 09:23:55;;;;;;;38.70;20.70;;;6.50;95.40;;;;;;5090958;28;20222;-96
2022/12/01 09:26:31;;;;;;;48.27;22.00;;;6.60;96.10;;;;;;5091455;28;20209;-96
2022/12/01 09:29:03;;;;;;;39.40;19.87;;;6.70;96.00;;;;;;5097419;28;20231;-96
2022/12/01 09:31:31;;;;;;;43.57;19.70;;;6.70;96.00;;;;;;5094942;28;20207;-95
2022/12/01 09:34:01;;;;;;;45.30;21.27;;;6.80;96.20;;;;;;5093246;28;20292;-94
2022/12/01 09:36:32;;;;;;;43.77;21.10;;;6.90;96.40;;;;;;5073075;28;20219;-93
2022/12/01 09:38:59;;;;;;;39.73;20.13;;;6.90;96.50;;;;;;5088743;28;20830;-94
2022/12/01 09:41:33;;;;;;;38.07;21.37;;;7.00;96.50;;;;;;5090872;28;20188;-93
2022/12/01 09:44:05;;;;;;;46.07;22.40;;;7.00;96.70;;;;;;5083520;28;20229;-94
2022/12/01 09:46:39;;;;;;;42.40;21.77;;;7.10;96.70;;;;;;5090364;28;20253;-95
2022/12/01 09:49:21;;;;;;;43.17;21.13;;;7.20;96.80;;;;;;5081518;28;20616;-94
2022/12/01 09:51:49;;;;;;;43.03;20.23;;;7.30;97.00;;;;;;5095720;28;20235;-94
2022/12/01 09:54:23;;;;;;;47.97;22.00;;;7.40;96.80;;;;;;5087129;28;20728;-94
2022/12/01 09:56:54;;;;;;;47.40;21.80;;;7.40;97.00;;;;;;5087658;28;20213;-96
2022/12/01 09:59:25;;;;;;;43.07;21.33;;;7.40;97.00;;;;;;5086837;28;20670;-94
2022/12/01 10:01:58;;;;;;;47.73;23.50;;;7.50;97.00;;;;;;5074772;28;20214;-92
2022/12/01 10:04:35;;;;;;;46.13;23.03;;;7.60;97.10;;;;;;5082494;28;20294;-93
2022/12/01 10:07:19;;;;;;;48.07;22.93;;;7.70;97.20;;;;;;5079045;28;20303;-92
2022/12/01 10:09:52;;;;;;;46.70;21.93;;;7.70;97.30;;;;;;5097078;28;20636;-94
2022/12/01 10:12:26;;;;;;;50.20;22.37;;;7.80;97.20;;;;;;5073702;28;20206;-93
2022/12/01 10:15:02;;;;;;;41.73;20.73;;;7.90;97.20;;;;;;5088871;28;20213;-93
2022/12/01 10:17:36;;;;;;;42.40;21.10;;;7.90;97.20;;;;;;5072364;28;20752;-92
2022/12/01 10:20:13;;;;;;;46.57;23.73;;;8.00;97.10;;;;;;5076658;28;20220;-94
2022/12/01 10:23:01;;;;;;;49.57;23.10;;;8.10;97.20;;;;;;5074050;28;20228;-93
2022/12/01 10:25:38;;;;;;;39.27;20.63;;;8.20;97.30;;;;;;5090354;28;20673;-94
2022/12/01 10:28:24;;;;;;;43.40;21.27;;;8.20;97.10;;;;;;5079968;28;20249;-93
2022/12/01 10:30:56;;;;;;;43.93;21.23;;;8.30;97.20;;;;;;5095082;28;20561;-93
2022/12/01 10:33:26;;;;;;;45.60;22.80;;;8.30;97.00;;;;;;5083068;28;20201;-93
2022/12/01 10:35:58;;;;;;;44.87;21.13;;;8.40;97.10;;;;;;5085275;28;20257;-95
2022/12/01 10:38:27;;;;;;;41.57;21.63;;;8.40;97.10;;;;;;5073377;28;20732;-94
2022/12/01 10:40:56;;;;;;;37.20;19.40;;;8.50;97.00;;;;;;5075329;28;20273;-93
2022/12/01 10:43:29;;;;;;;1945.03;327.37;;;8.50;97.00;;;;;;5071526;28;20205;-93
2022/12/01 10:45:58;;;;;;;94.20;38.17;;;8.60;97.10;;;;;;5083677;28;20667;-94
2022/12/01 10:48:25;;;;;;;50.47;24.83;;;8.70;97.10;;;;;;5090412;28;20256;-94
2022/12/01 10:51:13;;;;;;;49.50;22.80;;;8.70;97.00;;;;;;5076546;28;20208;-94
2022/12/01 10:53:45;;;;;;;45.77;21.67;;;8.80;97.10;;;;;;5079675;28;20226;-92
2022/12/01 10:56:15;;;;;;;35.13;19.87;;;8.80;97.10;;;;;;5082827;28;20721;-94
2022/12/01 10:58:47;;;;;;;42.03;20.67;;;8.90;97.10;;;;;;5078168;28;20325;-92
2022/12/01 11:01:20;;;;;;;41.43;21.57;;;8.90;97.20;;;;;;5071573;28;20297;-93
2022/12/01 11:04:00;;;;;;;40.97;20.43;;;9.00;97.20;;;;;;5072388;28;20217;-94
2022/12/01 11:06:30;;;;;;;37.53;20.67;;;9.10;97.30;;;;;;5076036;28;20703;-93
2022/12/01 11:09:00;;;;;;;38.27;21.10;;;9.20;97.40;;;;;;5079727;28;20256;-94
2022/12/01 11:11:32;;;;;;;39.43;20.73;;;9.20;97.60;;;;;;5083606;28;20214;-94
2022/12/01 11:14:04;;;;;;;44.20;20.67;;;9.30;97.80;;;;;;5098905;28;20614;-94
2022/12/01 11:16:42;;;;;;;33.10;19.30;;;9.40;97.80;;;;;;5104421;28;20336;-95
2022/12/01 11:19:22;;;;;;;34.90;18.20;;;9.60;98.10;;;;;;5075372;28;20232;-94
2022/12/01 11:21:55;;;;;;;38.00;19.30;;;9.70;97.80;;;;;;5072086;28;20319;-95
2022/12/01 11:24:43;;;;;;;36.50;19.10;;;9.90;97.50;;;;;;5092688;28;20211;-94
2022/12/01 11:27:17;;;;;;;34.37;18.07;;;10.10;97.10;;;;;;5093216;28;20536;-95
2022/12/01 11:29:49;;;;;;;36.47;17.30;;;10.20;96.80;;;;;;5093429;28;20617;-94
2022/12/01 11:32:23;;;;;;;29.97;17.40;;;10.40;95.90;;;;;;5087775;28;20264;-94
2022/12/01 11:34:56;;;;;;;38.57;19.13;;;10.50;95.40;;;;;;5092463;28;20226;-95
2022/12/01 11:37:32;;;;;;;31.33;17.47;;;10.60;95.30;;;;;;5093352;28;20222;-94
2022/12/01 11:40:18;;;;;;;32.80;16.87;;;10.80;94.30;;;;;;5095025;28;20199;-96
2022/12/01 11:42:55;;;;;;;35.63;19.40;;;10.90;94.00;;;;;;5096098;28;20203;-95
2022/12/01 11:45:31;;;;;;;36.33;18.33;;;11.00;94.00;;;;;;5099164;28;20210;-95
2022/12/01 11:48:00;;;;;;;33.37;18.60;;;11.10;94.10;;;;;;5083897;28;20202;-94
2022/12/01 11:50:33;;;;;;;38.07;19.40;;;11.20;94.40;;;;;;5087375;28;20291;-95
2022/12/01 11:53:26;;;;;;;31.70;17.57;;;11.30;94.40;;;;;;5094734;28;20195;-93
2022/12/01 11:56:15;;;;;;;32.20;18.53;;;11.40;93.70;;;;;;5091937;28;20238;-94
2022/12/01 11:58:42;;;;;;;40.37;19.10;;;11.60;94.10;;;;;;5084756;28;20309;-94
2022/12/01 12:01:17;;;;;;;33.00;16.83;;;11.70;94.30;;;;;;5089049;28;20257;-94
2022/12/01 12:03:59;;;;;;;35.00;18.47;;;11.80;93.00;;;;;;5075197;28;20607;-93
2022/12/01 12:06:34;;;;;;;33.73;17.97;;;11.90;91.90;;;;;;5081790;28;20196;-94
2022/12/01 12:09:16;;;;;;;34.00;16.60;;;12.00;91.40;;;;;;5086544;28;20211;-94
2022/12/01 12:11:51;;;;;;;33.87;18.30;;;12.10;90.50;;;;;;5099524;28;20196;-94
2022/12/01 12:14:47;;;;;;;39.87;18.37;;;12.20;90.30;;;;;;5088189;28;20199;-94
2022/12/01 12:17:41;;;;;;;32.73;18.07;;;12.20;89.80;;;;;;5111788;28;20204;-94
2022/12/01 12:20:32;;;;;;;33.70;17.87;;;12.30;89.80;;;;;;5110216;28;20224;-95
2022/12/01 12:23:19;;;;;;;28.87;16.77;;;12.40;87.80;;;;;;5098178;28;20239;-94
2022/12/01 12:25:59;;;;;;;34.23;18.07;;;12.40;88.70;;;;;;5096097;28;20236;-94
2022/12/01 12:28:43;;;;;;;29.23;17.13;;;12.40;88.90;;;;;;5092996;28;20200;-94
2022/12/01 12:31:23;;;;;;;34.03;18.40;;;12.40;90.10;;;;;;5097543;28;20245;-93
2022/12/01 12:37:08;;;;;;;34.13;18.50;;;12.60;88.30;;;;;;5042014;28;20233;-94
2022/12/01 12:39:57;;;;;;;29.90;17.90;;;12.70;90.20;;;;;;5096765;28;20232;-93
2022/12/01 12:42:35;;;;;;;30.03;17.23;;;12.80;89.30;;;;;;5096034;28;20216;-93
2022/12/01 12:45:18;;;;;;;33.60;18.00;;;12.90;90.20;;;;;;5089483;28;20209;-94
2022/12/01 12:48:10;;;;;;;28.67;16.37;;;13.00;88.70;;;;;;5075373;28;20205;-95
2022/12/01 12:50:52;;;;;;;33.23;17.07;;;13.20;87.60;;;;;;5076592;28;20197;-94
2022/12/01 12:53:24;;;;;;;30.97;17.17;;;13.30;88.20;;;;;;5093031;28;20203;-94
2022/12/01 12:55:54;;;;;;;25.20;16.63;;;13.40;86.00;;;;;;5095021;28;20258;-93
2022/12/01 12:58:32;;;;;;;27.80;15.40;;;13.50;85.90;;;;;;5092075;28;20226;-96
2022/12/01 13:01:07;;;;;;;30.33;16.13;;;13.60;83.20;;;;;;5093299;28;20198;-94
2022/12/01 13:03:42;;;;;;;29.80;16.23;;;13.70;81.90;;;;;;5106558;28;20202;-94
2022/12/01 13:06:22;;;;;;;31.30;16.57;;;13.80;82.20;;;;;;5108597;28;20227;-94
2022/12/01 13:08:59;;;;;;;30.73;16.47;;;13.90;82.30;;;;;;5091872;28;20483;-93
2022/12/01 13:11:37;;;;;;;27.87;15.47;;;13.90;82.50;;;;;;5089398;28;20201;-94
2022/12/01 13:14:18;;;;;;;27.73;15.70;;;14.10;80.90;;;;;;5091113;28;20236;-94
2022/12/01 13:16:48;;;;;;;23.20;14.30;;;14.20;81.80;;;;;;5088277;28;20207;-94
2022/12/01 13:19:23;;;;;;;26.20;14.70;;;14.20;79.90;;;;;;5095015;28;20233;-94
2022/12/01 13:21:59;;;;;;;27.47;15.63;;;14.30;78.20;;;;;;5085433;28;20261;-95
2022/12/01 13:24:31;;;;;;;22.77;14.20;;;14.40;78.20;;;;;;5078138;28;20693;-94
2022/12/01 13:27:02;;;;;;;26.93;14.13;;;14.40;76.10;;;;;;5095288;28;20201;-94
2022/12/01 13:29:34;;;;;;;21.37;14.37;;;14.50;75.20;;;;;;5099175;28;20270;-94
2022/12/01 13:32:10;;;;;;;25.00;15.03;;;14.50;74.70;;;;;;5078874;28;20204;-95
2022/12/01 13:34:41;;;;;;;22.27;13.20;;;14.50;73.80;;;;;;5080271;28;20192;-95
2022/12/01 13:37:11;;;;;;;24.10;14.33;;;14.50;74.70;;;;;;5088622;28;20199;-94
2022/12/01 13:39:44;;;;;;;26.00;14.87;;;14.50;74.90;;;;;;5095653;28;20238;-93
2022/12/01 13:42:23;;;;;;;24.43;14.90;;;14.50;74.30;;;;;;5094971;28;20305;-92
2022/12/01 13:44:55;;;;;;;26.50;15.10;;;14.50;73.20;;;;;;5089209;28;20218;-94
2022/12/01 13:47:38;;;;;;;28.40;16.00;;;14.50;73.50;;;;;;5077697;28;20207;-93
2022/12/01 13:50:39;;;;;;;25.47;14.40;;;14.40;72.10;;;;;;5079300;28;20289;-96
2022/12/01 13:53:25;;;;;;;27.53;14.80;;;14.40;71.00;;;;;;5093793;28;20209;-95
2022/12/01 13:56:15;;;;;;;26.37;15.30;;;14.30;71.30;;;;;;5094051;28;21019;-95
2022/12/01 13:58:47;;;;;;;29.83;16.57;;;14.20;72.20;;;;;;5057323;28;20893;-94
2022/12/01 14:01:57;;;;;;;26.27;15.53;;;14.10;72.30;;;;;;5079270;28;20202;-95
2022/12/01 14:04:44;;;;;;;25.43;14.73;;;14.00;71.80;;;;;;5088451;28;20197;-95
2022/12/01 14:07:27;;;;;;;27.80;14.90;;;13.90;71.80;;;;;;5081187;28;20197;-95
2022/12/01 14:10:06;;;;;;;28.30;16.93;;;13.90;72.40;;;;;;5073996;28;20295;-94
2022/12/01 14:12:37;;;;;;;29.47;15.93;;;13.80;72.60;;;;;;5074743;28;20234;-95
2022/12/01 14:15:29;;;;;;;29.93;16.37;;;13.70;72.70;;;;;;5073454;28;20201;-95
2022/12/01 14:18:16;;;;;;;29.27;15.47;;;13.60;72.00;;;;;;5079311;28;20231;-94
2022/12/01 14:20:47;;;;;;;26.20;16.30;;;13.50;72.10;;;;;;5077748;28;20616;-95
2022/12/01 14:23:22;;;;;;;27.67;15.27;;;13.50;72.50;;;;;;5095291;28;20206;-95